This is the latest recevied weather packets stored in our database for station/object HS1AXC-1. If no packets are shown the sender has not sent any weather packets the latest 10 day(s).
| Time | Temp. | Humidity | Pressure | Rain* | Wind** | Luminosity | Snow |
|---|---|---|---|---|---|---|---|
| 1777642918 | 33.89° C | 74% | 1009 hPa | - | - | 0 W/m² | - |
| 1777642295 | 32.78° C | 80% | 1009 hPa | - | - | 0 W/m² | - |
| 1777641673 | 33.89° C | 78% | 1009 hPa | - | - | 0 W/m² | - |
| 1777641051 | 33.89° C | 78% | 1009 hPa | - | - | 0 W/m² | - |
| 1777640429 | 33.33° C | 79% | 1009 hPa | - | - | 0 W/m² | - |
| 1777639807 | 33.33° C | 78% | 1008 hPa | - | - | 0 W/m² | - |
| 1777639185 | 34.44° C | 72% | 1008 hPa | - | - | 0 W/m² | - |
| 1777638563 | 33.89° C | 74% | 1008 hPa | - | - | 0 W/m² | - |
| 1777637941 | 33.33° C | 73% | 1008 hPa | - | - | 0 W/m² | - |
| 1777637319 | 34.44° C | 67% | 1008 hPa | - | - | 0 W/m² | - |
| 1777636697 | 34.44° C | 64% | 1008 hPa | - | - | 0 W/m² | - |
| 1777636075 | 34.44° C | 62% | 1008 hPa | - | - | 0 W/m² | - |
| 1777635738 | 35° C | 62% | 1007 hPa | - | - | 0 W/m² | - |
| 1777635116 | 34.44° C | 62% | 1007 hPa | - | - | 0 W/m² | - |
| 1777632134 | 35° C | 59% | 1007 hPa | - | - | 0 W/m² | - |
| 1777631512 | 35.56° C | 59% | 1007 hPa | - | - | 0 W/m² | - |
| 1777630890 | 35° C | 60% | 1007 hPa | - | - | 0 W/m² | - |
| 1777630268 | 35.56° C | 59% | 1006 hPa | - | - | 0 W/m² | - |
| 1777629646 | 35.56° C | 59% | 1006 hPa | - | - | 0 W/m² | - |
| 1777629024 | 35.56° C | 60% | 1006 hPa | - | - | 0 W/m² | - |
| 1777628402 | 35.56° C | 61% | 1006 hPa | - | - | 0 W/m² | - |
| 1777627780 | 35.56° C | 62% | 1006 hPa | - | - | 1 W/m² | - |
| 1777627158 | 35.56° C | 63% | 1006 hPa | - | - | 1 W/m² | - |
| 1777626536 | 35.56° C | 62% | 1006 hPa | - | - | 1 W/m² | - |
| 1777625914 | 35.56° C | 65% | 1007 hPa | - | - | 1 W/m² | - |
* Rain since midnight (hover to see other rain measurements)
** Current wind speed in m/s (hover to see current wind gust speed)